createdAt,value
2018-12-25T00:01:40.923Z,97.79
2018-12-25T00:04:46.823Z,97.93
2018-12-25T00:07:52.696Z,97.83
2018-12-25T00:10:58.773Z,98.01
2018-12-25T00:14:06.177Z,98.13
2018-12-25T00:17:12.217Z,98.02
2018-12-25T00:20:18.104Z,98.12
2018-12-25T00:23:23.989Z,98.26
2018-12-25T00:26:29.845Z,98.31
2018-12-25T00:29:35.722Z,98.29
2018-12-25T00:32:41.775Z,98.81
2018-12-25T00:35:47.653Z,99.02
2018-12-25T00:38:53.590Z,99.02
2018-12-25T00:41:59.569Z,99.02
2018-12-25T00:45:05.587Z,99.14
2018-12-25T00:48:11.535Z,99.41
2018-12-25T00:51:17.408Z,99.42
2018-12-25T00:54:23.310Z,99.41
2018-12-25T00:57:29.193Z,99.30
2018-12-25T01:00:35.112Z,99.22
2018-12-25T01:03:40.999Z,99.30
2018-12-25T01:06:46.999Z,99.29
2018-12-25T01:09:52.845Z,99.08
2018-12-25T01:12:58.749Z,98.85
2018-12-25T01:16:07.010Z,98.75
2018-12-25T01:19:12.863Z,98.44
2018-12-25T01:22:18.764Z,98.32
2018-12-25T01:25:24.608Z,98.39
2018-12-25T01:28:30.670Z,98.33
2018-12-25T01:31:36.637Z,98.40
2018-12-25T01:34:42.506Z,98.51
2018-12-25T01:37:48.346Z,98.74
2018-12-25T01:40:54.241Z,98.75
2018-12-25T01:44:00.086Z,98.79
2018-12-25T01:47:05.982Z,98.97
2018-12-25T01:50:11.889Z,98.85
2018-12-25T01:53:17.830Z,98.91
2018-12-25T01:56:23.751Z,99.06
2018-12-25T01:59:29.667Z,99.22
2018-12-25T02:02:35.609Z,99.23
2018-12-25T02:05:44.509Z,98.80
2018-12-25T02:08:50.342Z,98.77
2018-12-25T02:11:56.275Z,98.81
2018-12-25T02:15:06.124Z,98.94
2018-12-25T02:18:12.046Z,98.71
2018-12-25T02:21:17.971Z,99.07
2018-12-25T02:24:23.757Z,99.03
2018-12-25T02:27:29.643Z,99.10
2018-12-25T02:30:35.508Z,99.02
2018-12-25T02:33:41.500Z,98.93
2018-12-25T02:36:47.348Z,98.97
2018-12-25T02:39:53.364Z,99.09
2018-12-25T02:42:59.361Z,99.03
2018-12-25T02:46:05.291Z,99.16
2018-12-25T02:49:11.153Z,99.27
2018-12-25T02:52:17.135Z,99.16
2018-12-25T02:55:22.953Z,99.21
2018-12-25T02:58:28.892Z,99.30
2018-12-25T03:01:34.860Z,99.29
2018-12-25T03:04:40.750Z,99.26
2018-12-25T03:07:46.669Z,99.11
2018-12-25T03:10:52.637Z,98.87
2018-12-25T03:13:58.472Z,98.94
2018-12-25T03:17:04.299Z,98.92
2018-12-25T03:20:10.242Z,98.72
2018-12-25T03:23:16.232Z,98.50
2018-12-25T03:26:22.200Z,98.36
2018-12-25T03:29:28.182Z,98.09
2018-12-25T03:32:34.076Z,97.98
2018-12-25T03:35:39.935Z,98.10
2018-12-25T03:38:45.829Z,97.97
2018-12-25T03:41:51.722Z,97.59
2018-12-25T03:44:57.780Z,97.58
2018-12-25T03:48:03.710Z,97.60
2018-12-25T03:51:09.759Z,97.41
2018-12-25T03:54:15.623Z,97.43
2018-12-25T03:57:21.484Z,97.40
2018-12-25T04:00:27.463Z,97.29
2018-12-25T04:03:33.431Z,97.31
2018-12-25T04:06:39.524Z,97.37
2018-12-25T04:09:45.324Z,97.38
2018-12-25T04:12:51.197Z,97.20
2018-12-25T04:15:57.020Z,97.19
2018-12-25T04:19:02.906Z,97.06
2018-12-25T04:22:08.770Z,96.86
2018-12-25T04:25:14.682Z,96.83
2018-12-25T04:28:20.637Z,96.71
2018-12-25T04:31:26.619Z,96.60
2018-12-25T04:34:32.536Z,96.69
2018-12-25T04:37:38.412Z,96.65
2018-12-25T04:40:44.285Z,96.71
2018-12-25T04:43:50.295Z,96.79
2018-12-25T04:46:56.199Z,96.53
2018-12-25T04:50:02.119Z,96.60
2018-12-25T04:53:08.037Z,96.45
2018-12-25T04:56:13.880Z,96.37
2018-12-25T04:59:19.742Z,96.38
2018-12-25T05:02:25.603Z,96.19
2018-12-25T05:05:31.577Z,96.00
2018-12-25T05:08:37.667Z,96.09
2018-12-25T05:11:43.581Z,95.94
2018-12-25T05:14:49.496Z,95.97
2018-12-25T05:17:55.462Z,96.12
2018-12-25T05:21:01.466Z,96.06
2018-12-25T05:24:07.356Z,95.71
2018-12-25T05:27:13.210Z,95.65
2018-12-25T05:30:19.071Z,95.13
2018-12-25T05:33:25.080Z,95.01
2018-12-25T05:36:31.219Z,94.91
2018-12-25T05:39:37.103Z,94.85
2018-12-25T05:42:42.965Z,94.82
2018-12-25T05:45:48.885Z,95.00
2018-12-25T05:48:54.862Z,95.13
2018-12-25T05:52:00.759Z,95.12
2018-12-25T05:55:06.749Z,95.12
2018-12-25T05:58:12.636Z,95.30
2018-12-25T06:01:18.442Z,95.57
2018-12-25T06:04:24.255Z,95.34
2018-12-25T06:07:30.220Z,95.71
2018-12-25T06:10:36.231Z,95.77
2018-12-25T06:13:43.188Z,95.79
2018-12-25T06:16:49.033Z,95.91
2018-12-25T06:19:54.856Z,96.05
2018-12-25T06:23:00.886Z,96.06
2018-12-25T06:26:06.936Z,95.40
2018-12-25T06:29:12.894Z,95.30
2018-12-25T06:32:18.712Z,95.31
2018-12-25T06:35:24.634Z,95.31
2018-12-25T06:38:30.563Z,95.49
2018-12-25T06:41:36.452Z,95.29
2018-12-25T06:44:42.353Z,95.12
2018-12-25T06:47:48.490Z,95.47
2018-12-25T06:50:54.375Z,95.33
2018-12-25T06:54:00.331Z,95.31
2018-12-25T06:57:06.348Z,95.29
2018-12-25T07:00:13.326Z,95.36
2018-12-25T07:03:19.355Z,95.50
2018-12-25T07:06:25.525Z,95.43
2018-12-25T07:09:31.416Z,95.31
2018-12-25T07:12:56.493Z,95.06
2018-12-25T07:16:02.335Z,94.99
2018-12-25T07:19:08.275Z,95.19
2018-12-25T07:22:14.299Z,95.51
2018-12-25T07:25:20.168Z,95.54
2018-12-25T07:28:26.029Z,95.62
2018-12-25T07:31:31.930Z,95.46
2018-12-25T07:34:37.970Z,95.55
2018-12-25T07:37:43.984Z,95.45
2018-12-25T07:40:49.952Z,95.54
2018-12-25T07:43:55.932Z,95.58
2018-12-25T07:47:01.806Z,95.45
2018-12-25T07:50:08.373Z,95.14
2018-12-25T07:53:14.397Z,95.06
2018-12-25T07:56:20.360Z,94.62
2018-12-25T07:59:26.197Z,94.63
2018-12-25T08:02:32.251Z,94.15
2018-12-25T08:05:38.237Z,94.09
2018-12-25T08:08:44.260Z,93.76
2018-12-25T08:11:50.131Z,93.99
2018-12-25T08:14:56.101Z,93.79
2018-12-25T08:18:02.291Z,93.67
2018-12-25T08:21:08.206Z,93.46
2018-12-25T08:24:14.183Z,92.90
2018-12-25T08:27:20.133Z,92.65
2018-12-25T08:30:26.251Z,92.70
2018-12-25T08:33:32.180Z,92.70
2018-12-25T08:36:41.034Z,92.30
2018-12-25T08:39:46.982Z,90.79
2018-12-25T08:42:53.107Z,88.69
2018-12-25T08:45:59.213Z,90.05
2018-12-25T08:49:05.145Z,90.30
2018-12-25T08:52:11.322Z,90.44
2018-12-25T08:55:17.312Z,90.95
2018-12-25T08:58:23.390Z,91.16
2018-12-25T09:01:29.260Z,91.76
2018-12-25T09:04:35.252Z,91.47
2018-12-25T09:07:41.151Z,91.26
2018-12-25T09:10:50.195Z,90.78
2018-12-25T09:13:56.175Z,90.09
2018-12-25T09:17:02.135Z,89.20
2018-12-25T09:20:08.170Z,89.35
2018-12-25T09:23:14.199Z,90.17
2018-12-25T09:26:20.370Z,90.41
2018-12-25T09:29:26.388Z,90.15
2018-12-25T09:32:32.402Z,90.44
2018-12-25T09:35:38.471Z,89.93
2018-12-25T09:38:44.392Z,89.87
2018-12-25T09:41:50.478Z,89.72
2018-12-25T09:44:56.633Z,88.92
2018-12-25T09:48:02.575Z,88.42
2018-12-25T09:51:08.652Z,87.79
2018-12-25T09:54:14.793Z,87.37
2018-12-25T09:57:20.865Z,87.02
2018-12-25T10:00:26.933Z,86.30
2018-12-25T10:03:32.941Z,85.07
2018-12-25T10:06:38.890Z,86.44
2018-12-25T10:09:45.238Z,86.26
2018-12-25T10:12:51.118Z,86.10
2018-12-25T10:15:57.290Z,85.58
2018-12-25T10:19:03.348Z,86.03
2018-12-25T10:22:09.272Z,85.09
2018-12-25T10:25:15.246Z,85.10
2018-12-25T10:28:21.215Z,84.41
2018-12-25T10:31:27.265Z,82.74
2018-12-25T10:34:33.298Z,82.69
2018-12-25T10:37:41.607Z,83.16
2018-12-25T10:40:47.579Z,82.71
2018-12-25T10:43:53.528Z,82.81
2018-12-25T10:46:59.447Z,81.10
2018-12-25T10:50:05.973Z,81.62
2018-12-25T10:53:12.630Z,81.21
2018-12-25T10:56:37.594Z,77.27
2018-12-25T10:59:43.473Z,73.39
2018-12-25T11:02:49.354Z,72.30
2018-12-25T11:05:55.398Z,73.88
2018-12-25T11:09:01.271Z,73.84
2018-12-25T11:12:07.280Z,73.23
2018-12-25T11:15:13.173Z,73.72
2018-12-25T11:18:19.250Z,73.86
2018-12-25T11:21:25.196Z,72.50
2018-12-25T11:24:31.097Z,73.00
2018-12-25T11:27:36.921Z,72.71
2018-12-25T11:30:42.899Z,72.75
2018-12-25T11:33:48.835Z,71.03
2018-12-25T11:36:57.534Z,71.38
2018-12-25T11:40:03.418Z,70.09
2018-12-25T11:43:09.422Z,69.99
2018-12-25T11:46:15.535Z,69.96
2018-12-25T11:49:21.426Z,70.16
2018-12-25T11:52:28.444Z,70.75
2018-12-25T11:55:34.781Z,70.65
2018-12-25T11:58:40.656Z,69.51
2018-12-25T12:01:46.503Z,68.85
2018-12-25T12:04:52.421Z,70.67
2018-12-25T12:07:58.483Z,70.85
2018-12-25T12:11:07.551Z,71.27
2018-12-25T12:14:13.440Z,71.53
2018-12-25T12:17:19.615Z,70.40
2018-12-25T12:20:25.563Z,69.84
2018-12-25T12:23:31.578Z,70.05
2018-12-25T12:26:40.499Z,70.24
2018-12-25T12:29:46.538Z,69.59
2018-12-25T12:32:52.647Z,68.35
2018-12-25T12:35:58.908Z,68.60
2018-12-25T12:39:06.820Z,69.32
2018-12-25T12:42:15.739Z,68.71
2018-12-25T12:45:21.663Z,68.44
2018-12-25T12:48:27.478Z,68.98
2018-12-25T12:51:33.405Z,69.72
2018-12-25T12:54:39.300Z,69.84
2018-12-25T12:57:45.301Z,69.42
2018-12-25T13:00:51.218Z,70.26
2018-12-25T13:03:57.107Z,70.26
2018-12-25T13:07:02.987Z,70.66
2018-12-25T13:10:09.733Z,70.88
2018-12-25T13:13:15.610Z,71.02
2018-12-25T13:16:21.610Z,70.01
2018-12-25T13:19:27.519Z,72.01
2018-12-25T13:22:33.329Z,72.65
2018-12-25T13:25:39.583Z,72.04
2018-12-25T13:28:45.446Z,72.37
2018-12-25T13:31:51.392Z,72.44
2018-12-25T13:34:57.670Z,72.45
2018-12-25T13:38:03.748Z,72.50
2018-12-25T13:41:09.638Z,72.65
2018-12-25T13:44:15.671Z,72.31
2018-12-25T13:47:21.691Z,70.93
2018-12-25T13:50:27.595Z,72.21
2018-12-25T13:53:33.528Z,72.78
2018-12-25T13:56:39.471Z,71.04
2018-12-25T13:59:45.383Z,71.94
2018-12-25T14:02:51.240Z,72.72
2018-12-25T14:05:57.080Z,72.80
2018-12-25T14:09:03.585Z,73.04
2018-12-25T14:12:09.497Z,71.25
2018-12-25T14:15:15.518Z,70.45
2018-12-25T14:18:21.390Z,70.25
2018-12-25T14:21:27.286Z,70.78
2018-12-25T14:24:33.182Z,70.67
2018-12-25T14:27:39.064Z,69.95
2018-12-25T14:30:44.982Z,70.98
2018-12-25T14:33:50.972Z,71.88
2018-12-25T14:36:56.835Z,72.09
2018-12-25T14:40:02.776Z,71.61
2018-12-25T14:43:08.684Z,71.50
2018-12-25T14:46:14.651Z,71.71
2018-12-25T14:49:20.757Z,73.11
2018-12-25T14:52:26.635Z,72.38
2018-12-25T14:55:32.488Z,72.71
2018-12-25T14:58:38.388Z,72.97
2018-12-25T15:01:44.353Z,73.33
2018-12-25T15:04:50.276Z,74.18
2018-12-25T15:07:56.140Z,74.49
2018-12-25T15:11:02.042Z,74.81
2018-12-25T15:14:07.799Z,75.98
2018-12-25T15:17:13.666Z,75.21
2018-12-25T15:20:19.589Z,74.23
2018-12-25T15:23:28.306Z,74.77
2018-12-25T15:26:33.230Z,75.62
2018-12-25T15:29:39.080Z,76.60
2018-12-25T15:32:44.974Z,76.58
2018-12-25T15:35:50.851Z,77.82
2018-12-25T15:38:56.792Z,77.63
2018-12-25T15:42:02.689Z,75.49
2018-12-25T15:45:09.751Z,75.64
2018-12-25T15:48:15.707Z,75.57
2018-12-25T15:51:21.685Z,75.44
2018-12-25T15:54:27.635Z,74.79
2018-12-25T15:57:33.574Z,74.41
2018-12-25T16:00:39.501Z,75.37
2018-12-25T16:03:45.409Z,76.42
2018-12-25T16:06:51.404Z,76.63
2018-12-25T16:09:57.309Z,77.92
2018-12-25T16:13:03.318Z,77.59
2018-12-25T16:16:09.280Z,76.53
2018-12-25T16:19:15.267Z,77.57
2018-12-25T16:22:21.133Z,79.43
2018-12-25T16:25:27.064Z,79.77
2018-12-25T16:28:33.013Z,79.97
2018-12-25T16:31:38.882Z,79.66
2018-12-25T16:34:44.877Z,80.49
2018-12-25T16:37:50.741Z,80.72
2018-12-25T16:40:56.716Z,80.41
2018-12-25T16:44:02.592Z,81.12
2018-12-25T16:47:08.620Z,80.99
2018-12-25T16:50:14.537Z,82.14
2018-12-25T16:53:20.436Z,82.59
2018-12-25T16:56:26.406Z,80.88
2018-12-25T16:59:32.513Z,81.04
2018-12-25T17:02:38.380Z,82.12
2018-12-25T17:05:44.391Z,81.59
2018-12-25T17:08:50.343Z,82.63
2018-12-25T17:11:56.314Z,81.83
2018-12-25T17:15:02.231Z,82.49
2018-12-25T17:18:09.581Z,83.10
2018-12-25T17:21:15.614Z,83.40
2018-12-25T17:24:21.542Z,82.78
2018-12-25T17:27:27.360Z,83.47
2018-12-25T17:30:33.277Z,82.10
2018-12-25T17:33:39.257Z,82.22
2018-12-25T17:36:45.131Z,81.43
2018-12-25T17:39:51.085Z,81.09
2018-12-25T17:42:56.838Z,82.06
2018-12-25T17:46:02.724Z,82.23
2018-12-25T17:49:08.547Z,82.41
2018-12-25T17:52:14.523Z,82.31
2018-12-25T17:55:20.426Z,82.24
2018-12-25T17:58:26.380Z,83.48
2018-12-25T18:01:32.307Z,84.29
2018-12-25T18:04:38.329Z,84.34
2018-12-25T18:07:44.255Z,84.46
2018-12-25T18:10:50.235Z,83.75
2018-12-25T18:13:56.161Z,84.37
2018-12-25T18:17:02.069Z,85.87
2018-12-25T18:20:08.312Z,85.25
2018-12-25T18:23:14.283Z,84.75
2018-12-25T18:26:20.257Z,85.00
2018-12-25T18:29:26.136Z,85.47
2018-12-25T18:32:32.015Z,85.14
2018-12-25T18:35:38.086Z,85.12
2018-12-25T18:38:44.206Z,86.05
2018-12-25T18:41:50.054Z,84.93
2018-12-25T18:44:56.036Z,83.76
2018-12-25T18:48:01.938Z,83.58
2018-12-25T18:51:08.002Z,85.18
2018-12-25T18:54:15.611Z,85.05
2018-12-25T18:57:22.074Z,85.68
2018-12-25T19:00:28.230Z,85.65
2018-12-25T19:03:34.118Z,85.18
2018-12-25T19:06:40.054Z,85.02
2018-12-25T19:09:46.027Z,85.14
2018-12-25T19:12:52.385Z,85.67
2018-12-25T19:16:03.462Z,86.21
2018-12-25T19:19:11.424Z,85.74
2018-12-25T19:22:17.481Z,85.24
2018-12-25T19:25:23.505Z,86.32
2018-12-25T19:28:29.485Z,87.01
2018-12-25T19:31:38.447Z,86.80
2018-12-25T19:34:44.379Z,86.33
2018-12-25T19:37:50.340Z,86.37
2018-12-25T19:40:56.404Z,87.26
2018-12-25T19:44:02.772Z,87.80
2018-12-25T19:47:08.747Z,87.84
2018-12-25T19:50:14.662Z,87.75
2018-12-25T19:53:20.694Z,88.50
2018-12-25T19:56:26.635Z,89.00
2018-12-25T19:59:32.556Z,88.91
2018-12-25T20:02:39.040Z,88.95
2018-12-25T20:06:44.113Z,89.26
2018-12-25T20:11:06.361Z,89.58
2018-12-25T20:15:15.183Z,89.18
2018-12-25T20:19:08.038Z,89.04
2018-12-25T20:22:58.526Z,88.87
2018-12-25T20:26:48.387Z,89.30
2018-12-25T20:31:24.735Z,89.68
2018-12-25T20:35:32.781Z,90.38
2018-12-25T20:39:52.882Z,91.19
2018-12-25T20:44:21.108Z,90.88
2018-12-25T20:48:22.722Z,90.64
2018-12-25T20:52:39.323Z,90.96
2018-12-25T20:56:39.435Z,91.20
2018-12-25T21:00:38.932Z,91.55
2018-12-25T21:04:32.603Z,90.90
2018-12-25T21:08:39.069Z,90.70
2018-12-25T21:12:49.605Z,90.49
2018-12-25T21:17:06.141Z,89.66
2018-12-25T21:21:03.785Z,89.93
2018-12-25T21:25:09.680Z,90.56
2018-12-25T21:28:08.013Z,91.20
2018-12-25T21:31:14.266Z,91.95
2018-12-25T21:34:20.507Z,92.68
2018-12-25T21:37:26.485Z,93.29
2018-12-25T21:40:32.792Z,93.81
2018-12-25T21:43:38.803Z,94.24
2018-12-25T21:46:44.776Z,94.50
2018-12-25T21:49:52.487Z,94.59
2018-12-25T21:52:59.073Z,94.53
2018-12-25T21:56:05.403Z,94.48
2018-12-25T21:59:12.073Z,94.43
2018-12-25T22:02:18.483Z,94.44
2018-12-25T22:05:24.713Z,94.28
2018-12-25T22:08:30.599Z,94.31
2018-12-25T22:11:36.899Z,94.32
2018-12-25T22:14:42.871Z,94.49
2018-12-25T22:17:48.853Z,94.50
2018-12-25T22:20:55.105Z,94.59
2018-12-25T22:24:01.053Z,94.59
2018-12-25T22:27:07.193Z,95.02
2018-12-25T22:30:13.380Z,95.38
2018-12-25T22:33:19.445Z,95.17
2018-12-25T22:36:25.461Z,95.58
2018-12-25T22:39:31.283Z,96.21
2018-12-25T22:42:37.132Z,96.27
2018-12-25T22:45:43.006Z,96.62
2018-12-25T22:48:49.181Z,96.95
2018-12-25T22:51:55.162Z,97.31
2018-12-25T22:55:01.117Z,97.49
2018-12-25T22:58:07.026Z,97.64
2018-12-25T23:01:12.963Z,97.89
2018-12-25T23:04:18.893Z,97.96
2018-12-25T23:07:24.903Z,97.83
2018-12-25T23:10:30.846Z,98.08
2018-12-25T23:13:36.736Z,98.27
2018-12-25T23:16:42.798Z,98.49
2018-12-25T23:19:48.716Z,98.62
2018-12-25T23:22:54.697Z,98.41
2018-12-25T23:26:00.730Z,98.48
2018-12-25T23:29:07.047Z,98.51
2018-12-25T23:32:13.119Z,98.44
2018-12-25T23:35:18.974Z,98.44
2018-12-25T23:38:24.827Z,98.10
2018-12-25T23:41:30.906Z,98.14
2018-12-25T23:44:36.877Z,97.78
2018-12-25T23:47:42.785Z,97.78
2018-12-25T23:50:48.805Z,97.81
2018-12-25T23:53:54.744Z,98.15
2018-12-25T23:57:00.618Z,98.41
